sensor_id;sensor_type;location;lat;lon;timestamp;temperature;humidity
72762;SHT30;60886;55.034;73.150;2023-08-07T00:02:41;14.93;79.60
72762;SHT30;60886;55.034;73.150;2023-08-07T00:05:45;14.95;79.58
72762;SHT30;60886;55.034;73.150;2023-08-07T00:08:47;15.02;79.73
72762;SHT30;60886;55.034;73.150;2023-08-07T00:11:49;14.97;78.76
72762;SHT30;60886;55.034;73.150;2023-08-07T00:14:50;15.03;78.85
72762;SHT30;60886;55.034;73.150;2023-08-07T00:17:52;15.06;79.71
72762;SHT30;60886;55.034;73.150;2023-08-07T00:20:53;15.10;79.69
72762;SHT30;60886;55.034;73.150;2023-08-07T00:23:54;15.13;78.40
72762;SHT30;60886;55.034;73.150;2023-08-07T00:26:56;15.16;79.17
72762;SHT30;60886;55.034;73.150;2023-08-07T00:29:57;15.19;78.38
72762;SHT30;60886;55.034;73.150;2023-08-07T00:32:59;15.20;78.16
72762;SHT30;60886;55.034;73.150;2023-08-07T00:36:01;15.19;78.27
72762;SHT30;60886;55.034;73.150;2023-08-07T00:39:03;15.23;78.09
72762;SHT30;60886;55.034;73.150;2023-08-07T00:42:05;15.24;78.01
72762;SHT30;60886;55.034;73.150;2023-08-07T00:45:07;15.37;77.99
72762;SHT30;60886;55.034;73.150;2023-08-07T00:48:09;15.40;78.07
72762;SHT30;60886;55.034;73.150;2023-08-07T00:51:12;15.39;78.64
72762;SHT30;60886;55.034;73.150;2023-08-07T00:54:15;15.40;78.94
72762;SHT30;60886;55.034;73.150;2023-08-07T00:57:19;15.49;79.01
72762;SHT30;60886;55.034;73.150;2023-08-07T01:00:24;15.60;78.95
72762;SHT30;60886;55.034;73.150;2023-08-07T01:03:26;15.65;79.06
72762;SHT30;60886;55.034;73.150;2023-08-07T01:06:27;15.68;79.40
72762;SHT30;60886;55.034;73.150;2023-08-07T01:09:29;15.75;79.48
72762;SHT30;60886;55.034;73.150;2023-08-07T01:12:34;15.84;79.63
72762;SHT30;60886;55.034;73.150;2023-08-07T01:15:37;15.92;79.09
72762;SHT30;60886;55.034;73.150;2023-08-07T01:18:39;15.97;78.85
72762;SHT30;60886;55.034;73.150;2023-08-07T01:21:45;16.09;79.16
72762;SHT30;60886;55.034;73.150;2023-08-07T01:24:50;16.21;79.00
72762;SHT30;60886;55.034;73.150;2023-08-07T01:28:04;16.35;78.52
72762;SHT30;60886;55.034;73.150;2023-08-07T01:31:13;16.81;77.24
72762;SHT30;60886;55.034;73.150;2023-08-07T01:34:18;17.30;75.31
72762;SHT30;60886;55.034;73.150;2023-08-07T01:37:22;17.67;74.59
72762;SHT30;60886;55.034;73.150;2023-08-07T01:40:24;17.64;73.96
72762;SHT30;60886;55.034;73.150;2023-08-07T01:43:28;17.68;73.16
72762;SHT30;60886;55.034;73.150;2023-08-07T01:46:29;17.81;73.07
72762;SHT30;60886;55.034;73.150;2023-08-07T01:49:31;18.06;70.60
72762;SHT30;60886;55.034;73.150;2023-08-07T01:52:33;18.49;69.13
72762;SHT30;60886;55.034;73.150;2023-08-07T01:55:35;18.87;68.22
72762;SHT30;60886;55.034;73.150;2023-08-07T01:58:36;18.90;68.87
72762;SHT30;60886;55.034;73.150;2023-08-07T02:01:38;18.96;66.93
72762;SHT30;60886;55.034;73.150;2023-08-07T02:04:39;19.07;67.32
72762;SHT30;60886;55.034;73.150;2023-08-07T02:07:42;19.22;66.63
72762;SHT30;60886;55.034;73.150;2023-08-07T02:10:43;19.34;67.35
72762;SHT30;60886;55.034;73.150;2023-08-07T02:13:45;19.66;66.18
72762;SHT30;60886;55.034;73.150;2023-08-07T02:16:47;20.47;64.53
72762;SHT30;60886;55.034;73.150;2023-08-07T02:19:48;21.09;62.61
72762;SHT30;60886;55.034;73.150;2023-08-07T02:22:50;21.49;62.80
72762;SHT30;60886;55.034;73.150;2023-08-07T02:25:51;21.32;62.12
72762;SHT30;60886;55.034;73.150;2023-08-07T02:28:54;21.37;62.96
72762;SHT30;60886;55.034;73.150;2023-08-07T02:31:56;21.45;60.12
72762;SHT30;60886;55.034;73.150;2023-08-07T02:34:57;21.55;61.62
72762;SHT30;60886;55.034;73.150;2023-08-07T02:37:59;21.65;61.26
72762;SHT30;60886;55.034;73.150;2023-08-07T02:41:00;21.70;59.82
72762;SHT30;60886;55.034;73.150;2023-08-07T02:44:01;21.96;59.26
72762;SHT30;60886;55.034;73.150;2023-08-07T02:47:03;22.16;57.48
72762;SHT30;60886;55.034;73.150;2023-08-07T02:50:05;22.40;60.22
72762;SHT30;60886;55.034;73.150;2023-08-07T02:53:06;22.58;57.62
72762;SHT30;60886;55.034;73.150;2023-08-07T02:56:08;22.75;56.16
72762;SHT30;60886;55.034;73.150;2023-08-07T02:59:09;22.88;55.93
72762;SHT30;60886;55.034;73.150;2023-08-07T03:02:11;22.88;52.31
72762;SHT30;60886;55.034;73.150;2023-08-07T03:05:12;22.87;53.40
72762;SHT30;60886;55.034;73.150;2023-08-07T03:08:14;22.90;51.99
72762;SHT30;60886;55.034;73.150;2023-08-07T03:11:15;22.98;51.68
72762;SHT30;60886;55.034;73.150;2023-08-07T03:14:17;23.02;53.72
72762;SHT30;60886;55.034;73.150;2023-08-07T03:17:19;23.15;51.64
72762;SHT30;60886;55.034;73.150;2023-08-07T03:20:21;23.30;50.55
72762;SHT30;60886;55.034;73.150;2023-08-07T03:23:23;23.41;50.68
72762;SHT30;60886;55.034;73.150;2023-08-07T03:26:25;23.56;52.54
72762;SHT30;60886;55.034;73.150;2023-08-07T03:29:26;23.63;50.63
72762;SHT30;60886;55.034;73.150;2023-08-07T03:32:28;23.69;52.75
72762;SHT30;60886;55.034;73.150;2023-08-07T03:35:35;23.71;52.24
72762;SHT30;60886;55.034;73.150;2023-08-07T03:38:36;23.87;54.32
72762;SHT30;60886;55.034;73.150;2023-08-07T03:41:38;24.04;49.62
72762;SHT30;60886;55.034;73.150;2023-08-07T03:44:43;24.03;49.33
72762;SHT30;60886;55.034;73.150;2023-08-07T03:47:44;24.04;50.19
72762;SHT30;60886;55.034;73.150;2023-08-07T03:50:46;24.21;49.62
72762;SHT30;60886;55.034;73.150;2023-08-07T03:53:48;24.35;54.15
72762;SHT30;60886;55.034;73.150;2023-08-07T03:56:50;24.45;50.06
72762;SHT30;60886;55.034;73.150;2023-08-07T03:59:53;24.55;49.61
72762;SHT30;60886;55.034;73.150;2023-08-07T04:02:55;24.64;50.59
72762;SHT30;60886;55.034;73.150;2023-08-07T04:05:57;24.82;48.55
72762;SHT30;60886;55.034;73.150;2023-08-07T04:08:58;24.88;47.55
72762;SHT30;60886;55.034;73.150;2023-08-07T04:12:00;24.89;48.31
72762;SHT30;60886;55.034;73.150;2023-08-07T04:15:01;25.04;48.97
72762;SHT30;60886;55.034;73.150;2023-08-07T04:18:03;25.09;45.35
72762;SHT30;60886;55.034;73.150;2023-08-07T04:21:04;25.06;43.58
72762;SHT30;60886;55.034;73.150;2023-08-07T04:24:07;24.99;45.14
72762;SHT30;60886;55.034;73.150;2023-08-07T04:27:11;25.05;43.40
72762;SHT30;60886;55.034;73.150;2023-08-07T04:30:13;25.05;45.81
72762;SHT30;60886;55.034;73.150;2023-08-07T04:33:14;25.12;44.43
72762;SHT30;60886;55.034;73.150;2023-08-07T04:36:15;25.06;43.86
72762;SHT30;60886;55.034;73.150;2023-08-07T04:39:17;25.04;43.94
72762;SHT30;60886;55.034;73.150;2023-08-07T04:42:19;24.95;43.85
72762;SHT30;60886;55.034;73.150;2023-08-07T04:45:21;24.98;43.88
72762;SHT30;60886;55.034;73.150;2023-08-07T04:48:22;24.96;44.35
72762;SHT30;60886;55.034;73.150;2023-08-07T04:51:26;24.91;43.29
72762;SHT30;60886;55.034;73.150;2023-08-07T04:54:27;25.04;44.79
72762;SHT30;60886;55.034;73.150;2023-08-07T04:57:29;25.12;44.43
72762;SHT30;60886;55.034;73.150;2023-08-07T05:00:35;25.20;43.81
72762;SHT30;60886;55.034;73.150;2023-08-07T05:03:37;25.23;43.53
72762;SHT30;60886;55.034;73.150;2023-08-07T05:06:39;25.30;43.56
72762;SHT30;60886;55.034;73.150;2023-08-07T05:09:40;25.20;43.58
72762;SHT30;60886;55.034;73.150;2023-08-07T05:12:42;25.22;43.43
72762;SHT30;60886;55.034;73.150;2023-08-07T05:15:46;25.39;44.43
72762;SHT30;60886;55.034;73.150;2023-08-07T05:18:47;25.08;43.74
72762;SHT30;60886;55.034;73.150;2023-08-07T05:21:49;25.13;43.34
72762;SHT30;60886;55.034;73.150;2023-08-07T05:24:52;25.15;43.98
72762;SHT30;60886;55.034;73.150;2023-08-07T05:27:53;25.16;44.20
72762;SHT30;60886;55.034;73.150;2023-08-07T05:30:54;24.79;44.30
72762;SHT30;60886;55.034;73.150;2023-08-07T05:33:56;24.61;44.37
72762;SHT30;60886;55.034;73.150;2023-08-07T05:36:57;24.47;45.35
72762;SHT30;60886;55.034;73.150;2023-08-07T05:39:58;24.38;45.55
72762;SHT30;60886;55.034;73.150;2023-08-07T05:43:00;24.64;44.78
72762;SHT30;60886;55.034;73.150;2023-08-07T05:46:01;24.69;44.48
72762;SHT30;60886;55.034;73.150;2023-08-07T05:49:03;24.67;44.46
72762;SHT30;60886;55.034;73.150;2023-08-07T05:52:04;24.69;44.95
72762;SHT30;60886;55.034;73.150;2023-08-07T05:55:07;24.65;45.74
72762;SHT30;60886;55.034;73.150;2023-08-07T05:58:09;24.54;45.86
72762;SHT30;60886;55.034;73.150;2023-08-07T06:01:10;24.48;45.12
72762;SHT30;60886;55.034;73.150;2023-08-07T06:04:12;24.57;45.39
72762;SHT30;60886;55.034;73.150;2023-08-07T06:07:13;24.61;45.26
72762;SHT30;60886;55.034;73.150;2023-08-07T06:10:15;24.52;44.14
72762;SHT30;60886;55.034;73.150;2023-08-07T06:13:16;24.44;45.43
72762;SHT30;60886;55.034;73.150;2023-08-07T06:16:18;24.44;45.01
72762;SHT30;60886;55.034;73.150;2023-08-07T06:19:19;24.44;45.11
72762;SHT30;60886;55.034;73.150;2023-08-07T06:22:23;24.45;45.33
72762;SHT30;60886;55.034;73.150;2023-08-07T06:25:24;24.50;44.50
72762;SHT30;60886;55.034;73.150;2023-08-07T06:28:25;24.51;44.46
72762;SHT30;60886;55.034;73.150;2023-08-07T06:31:27;24.51;44.50
72762;SHT30;60886;55.034;73.150;2023-08-07T06:34:28;24.74;45.49
72762;SHT30;60886;55.034;73.150;2023-08-07T06:37:30;24.85;44.11
72762;SHT30;60886;55.034;73.150;2023-08-07T06:40:35;25.01;44.58
72762;SHT30;60886;55.034;73.150;2023-08-07T06:43:36;25.23;44.66
72762;SHT30;60886;55.034;73.150;2023-08-07T06:46:38;25.37;43.41
72762;SHT30;60886;55.034;73.150;2023-08-07T06:49:39;25.51;43.25
72762;SHT30;60886;55.034;73.150;2023-08-07T06:52:41;25.54;41.95
72762;SHT30;60886;55.034;73.150;2023-08-07T06:55:42;25.39;43.32
72762;SHT30;60886;55.034;73.150;2023-08-07T06:58:44;25.15;43.15
72762;SHT30;60886;55.034;73.150;2023-08-07T07:01:45;25.02;42.75
72762;SHT30;60886;55.034;73.150;2023-08-07T07:04:47;24.94;43.93
72762;SHT30;60886;55.034;73.150;2023-08-07T07:07:48;24.91;44.51
72762;SHT30;60886;55.034;73.150;2023-08-07T07:10:50;24.85;44.45
72762;SHT30;60886;55.034;73.150;2023-08-07T07:13:51;24.82;43.29
72762;SHT30;60886;55.034;73.150;2023-08-07T07:16:53;24.76;43.33
72762;SHT30;60886;55.034;73.150;2023-08-07T07:19:54;25.01;42.19
72762;SHT30;60886;55.034;73.150;2023-08-07T07:22:57;25.09;42.43
72762;SHT30;60886;55.034;73.150;2023-08-07T07:25:59;25.12;42.25
72762;SHT30;60886;55.034;73.150;2023-08-07T07:29:00;24.99;42.79
72762;SHT30;60886;55.034;73.150;2023-08-07T07:32:01;24.96;42.72
72762;SHT30;60886;55.034;73.150;2023-08-07T07:35:03;24.89;43.52
72762;SHT30;60886;55.034;73.150;2023-08-07T07:38:06;24.89;43.60
72762;SHT30;60886;55.034;73.150;2023-08-07T07:41:08;24.92;43.44
72762;SHT30;60886;55.034;73.150;2023-08-07T07:44:12;25.05;43.74
72762;SHT30;60886;55.034;73.150;2023-08-07T07:47:14;25.13;43.38
72762;SHT30;60886;55.034;73.150;2023-08-07T07:50:15;25.18;42.67
72762;SHT30;60886;55.034;73.150;2023-08-07T07:53:16;25.29;42.79
72762;SHT30;60886;55.034;73.150;2023-08-07T07:56:18;25.47;40.75
72762;SHT30;60886;55.034;73.150;2023-08-07T07:59:19;25.51;40.60
72762;SHT30;60886;55.034;73.150;2023-08-07T08:02:21;25.49;40.84
72762;SHT30;60886;55.034;73.150;2023-08-07T08:05:23;25.40;40.82
72762;SHT30;60886;55.034;73.150;2023-08-07T08:08:25;25.33;41.22
72762;SHT30;60886;55.034;73.150;2023-08-07T08:11:29;25.49;40.89
72762;SHT30;60886;55.034;73.150;2023-08-07T08:14:30;25.60;41.44
72762;SHT30;60886;55.034;73.150;2023-08-07T08:17:32;25.73;40.50
72762;SHT30;60886;55.034;73.150;2023-08-07T08:20:35;25.78;41.88
72762;SHT30;60886;55.034;73.150;2023-08-07T08:23:36;25.81;40.56
72762;SHT30;60886;55.034;73.150;2023-08-07T08:26:38;25.81;42.80
72762;SHT30;60886;55.034;73.150;2023-08-07T08:29:45;25.81;43.41
72762;SHT30;60886;55.034;73.150;2023-08-07T08:32:47;25.80;42.42
72762;SHT30;60886;55.034;73.150;2023-08-07T08:35:48;25.59;42.66
72762;SHT30;60886;55.034;73.150;2023-08-07T08:38:50;25.45;43.20
72762;SHT30;60886;55.034;73.150;2023-08-07T08:41:52;25.42;43.63
72762;SHT30;60886;55.034;73.150;2023-08-07T08:44:58;25.40;44.25
72762;SHT30;60886;55.034;73.150;2023-08-07T08:48:02;25.47;43.78
72762;SHT30;60886;55.034;73.150;2023-08-07T08:51:06;25.59;43.14
72762;SHT30;60886;55.034;73.150;2023-08-07T08:54:08;25.62;42.69
72762;SHT30;60886;55.034;73.150;2023-08-07T08:57:11;25.77;40.68
72762;SHT30;60886;55.034;73.150;2023-08-07T09:00:13;25.76;41.29
72762;SHT30;60886;55.034;73.150;2023-08-07T09:03:27;25.84;42.23
72762;SHT30;60886;55.034;73.150;2023-08-07T09:06:31;25.91;41.52
72762;SHT30;60886;55.034;73.150;2023-08-07T09:09:33;25.80;42.70
72762;SHT30;60886;55.034;73.150;2023-08-07T09:12:39;25.77;42.36
72762;SHT30;60886;55.034;73.150;2023-08-07T09:15:43;25.70;42.70
72762;SHT30;60886;55.034;73.150;2023-08-07T09:18:49;25.69;42.87
72762;SHT30;60886;55.034;73.150;2023-08-07T09:21:51;25.63;42.40
72762;SHT30;60886;55.034;73.150;2023-08-07T09:24:52;25.66;42.58
72762;SHT30;60886;55.034;73.150;2023-08-07T09:27:55;25.73;42.64
72762;SHT30;60886;55.034;73.150;2023-08-07T09:31:00;25.80;42.51
72762;SHT30;60886;55.034;73.150;2023-08-07T09:34:05;25.83;42.33
72762;SHT30;60886;55.034;73.150;2023-08-07T09:37:09;25.83;43.91
72762;SHT30;60886;55.034;73.150;2023-08-07T09:40:11;25.83;42.22
72762;SHT30;60886;55.034;73.150;2023-08-07T09:43:22;25.80;43.08
72762;SHT30;60886;55.034;73.150;2023-08-07T09:46:25;25.81;41.95
72762;SHT30;60886;55.034;73.150;2023-08-07T09:49:32;25.84;42.60
72762;SHT30;60886;55.034;73.150;2023-08-07T09:52:34;25.97;41.54
72762;SHT30;60886;55.034;73.150;2023-08-07T09:55:35;26.02;40.43
72762;SHT30;60886;55.034;73.150;2023-08-07T09:58:37;25.98;40.85
72762;SHT30;60886;55.034;73.150;2023-08-07T10:01:40;25.94;42.00
72762;SHT30;60886;55.034;73.150;2023-08-07T10:04:41;25.91;41.24
72762;SHT30;60886;55.034;73.150;2023-08-07T10:07:43;26.04;42.66
72762;SHT30;60886;55.034;73.150;2023-08-07T10:10:46;26.17;41.76
72762;SHT30;60886;55.034;73.150;2023-08-07T10:13:48;26.27;39.70
72762;SHT30;60886;55.034;73.150;2023-08-07T10:16:49;26.40;40.08
72762;SHT30;60886;55.034;73.150;2023-08-07T10:19:52;26.47;39.94
72762;SHT30;60886;55.034;73.150;2023-08-07T10:23:00;26.47;41.58
72762;SHT30;60886;55.034;73.150;2023-08-07T10:26:06;26.44;40.95
72762;SHT30;60886;55.034;73.150;2023-08-07T10:29:13;26.32;41.08
72762;SHT30;60886;55.034;73.150;2023-08-07T10:32:20;26.22;41.15
72762;SHT30;60886;55.034;73.150;2023-08-07T10:35:32;26.11;40.52
72762;SHT30;60886;55.034;73.150;2023-08-07T10:38:35;25.93;40.48
72762;SHT30;60886;55.034;73.150;2023-08-07T10:41:39;25.78;41.01
72762;SHT30;60886;55.034;73.150;2023-08-07T10:44:48;25.78;40.33
72762;SHT30;60886;55.034;73.150;2023-08-07T10:51:07;25.91;38.85
72762;SHT30;60886;55.034;73.150;2023-08-07T10:54:10;26.00;40.58
72762;SHT30;60886;55.034;73.150;2023-08-07T10:57:13;26.05;39.67
72762;SHT30;60886;55.034;73.150;2023-08-07T11:00:15;26.07;40.32
72762;SHT30;60886;55.034;73.150;2023-08-07T11:03:28;26.07;40.09
72762;SHT30;60886;55.034;73.150;2023-08-07T11:06:32;26.10;41.88
72762;SHT30;60886;55.034;73.150;2023-08-07T11:09:34;26.08;41.70
72762;SHT30;60886;55.034;73.150;2023-08-07T11:12:37;26.00;41.30
72762;SHT30;60886;55.034;73.150;2023-08-07T11:15:38;25.94;42.26
72762;SHT30;60886;55.034;73.150;2023-08-07T11:18:40;26.00;41.81
72762;SHT30;60886;55.034;73.150;2023-08-07T11:21:45;26.04;41.41
72762;SHT30;60886;55.034;73.150;2023-08-07T11:24:47;25.97;41.36
72762;SHT30;60886;55.034;73.150;2023-08-07T11:27:48;25.94;40.70
72762;SHT30;60886;55.034;73.150;2023-08-07T11:31:00;25.93;41.02
72762;SHT30;60886;55.034;73.150;2023-08-07T11:34:02;25.86;41.97
72762;SHT30;60886;55.034;73.150;2023-08-07T11:37:04;25.84;41.87
72762;SHT30;60886;55.034;73.150;2023-08-07T11:40:07;25.78;42.42
72762;SHT30;60886;55.034;73.150;2023-08-07T11:43:30;25.77;42.40
72762;SHT30;60886;55.034;73.150;2023-08-07T11:46:32;25.81;42.43
72762;SHT30;60886;55.034;73.150;2023-08-07T11:49:34;25.77;42.48
72762;SHT30;60886;55.034;73.150;2023-08-07T11:52:36;25.76;42.66
72762;SHT30;60886;55.034;73.150;2023-08-07T11:56:07;25.70;42.59
72762;SHT30;60886;55.034;73.150;2023-08-07T11:59:08;25.67;42.73
72762;SHT30;60886;55.034;73.150;2023-08-07T12:02:10;25.66;41.87
72762;SHT30;60886;55.034;73.150;2023-08-07T12:05:12;25.62;42.27
72762;SHT30;60886;55.034;73.150;2023-08-07T12:08:14;25.59;42.80
72762;SHT30;60886;55.034;73.150;2023-08-07T12:11:15;25.57;43.30
72762;SHT30;60886;55.034;73.150;2023-08-07T12:14:17;25.54;42.02
72762;SHT30;60886;55.034;73.150;2023-08-07T12:17:18;25.53;42.07
72762;SHT30;60886;55.034;73.150;2023-08-07T12:20:22;25.51;42.34
72762;SHT30;60886;55.034;73.150;2023-08-07T12:23:23;25.46;41.98
72762;SHT30;60886;55.034;73.150;2023-08-07T12:26:25;25.47;41.71
72762;SHT30;60886;55.034;73.150;2023-08-07T12:29:26;25.47;41.42
72762;SHT30;60886;55.034;73.150;2023-08-07T12:32:30;25.45;42.15
72762;SHT30;60886;55.034;73.150;2023-08-07T12:35:35;25.45;42.13
72762;SHT30;60886;55.034;73.150;2023-08-07T12:38:36;25.42;42.22
72762;SHT30;60886;55.034;73.150;2023-08-07T12:41:38;25.43;42.97
72762;SHT30;60886;55.034;73.150;2023-08-07T12:44:39;25.40;42.59
72762;SHT30;60886;55.034;73.150;2023-08-07T12:47:41;25.39;42.73
72762;SHT30;60886;55.034;73.150;2023-08-07T12:50:43;25.35;43.57
72762;SHT30;60886;55.034;73.150;2023-08-07T12:53:44;25.27;42.94
72762;SHT30;60886;55.034;73.150;2023-08-07T12:56:46;25.18;43.49
72762;SHT30;60886;55.034;73.150;2023-08-07T12:59:47;25.06;44.06
72762;SHT30;60886;55.034;73.150;2023-08-07T13:02:50;24.95;44.79
72762;SHT30;60886;55.034;73.150;2023-08-07T13:05:51;24.81;44.60
72762;SHT30;60886;55.034;73.150;2023-08-07T13:08:53;24.75;44.64
72762;SHT30;60886;55.034;73.150;2023-08-07T13:11:54;24.68;45.26
72762;SHT30;60886;55.034;73.150;2023-08-07T13:14:56;24.57;45.50
72762;SHT30;60886;55.034;73.150;2023-08-07T13:17:57;24.51;45.79
72762;SHT30;60886;55.034;73.150;2023-08-07T13:20:58;24.44;45.65
72762;SHT30;60886;55.034;73.150;2023-08-07T13:24:00;24.44;45.81
72762;SHT30;60886;55.034;73.150;2023-08-07T13:27:01;24.45;45.67
72762;SHT30;60886;55.034;73.150;2023-08-07T13:30:04;24.41;46.58
72762;SHT30;60886;55.034;73.150;2023-08-07T13:33:11;24.35;47.43
72762;SHT30;60886;55.034;73.150;2023-08-07T13:36:13;24.27;47.22
72762;SHT30;60886;55.034;73.150;2023-08-07T13:39:14;24.22;46.93
72762;SHT30;60886;55.034;73.150;2023-08-07T13:42:16;24.17;47.53
72762;SHT30;60886;55.034;73.150;2023-08-07T13:45:17;24.13;47.21
72762;SHT30;60886;55.034;73.150;2023-08-07T13:48:19;24.09;47.24
72762;SHT30;60886;55.034;73.150;2023-08-07T13:51:22;24.07;47.12
72762;SHT30;60886;55.034;73.150;2023-08-07T13:54:23;24.07;47.84
72762;SHT30;60886;55.034;73.150;2023-08-07T13:57:25;24.07;46.94
72762;SHT30;60886;55.034;73.150;2023-08-07T14:00:35;24.06;47.02
72762;SHT30;60886;55.034;73.150;2023-08-07T14:03:36;24.07;46.66
72762;SHT30;60886;55.034;73.150;2023-08-07T14:06:38;24.10;47.16
72762;SHT30;60886;55.034;73.150;2023-08-07T14:09:40;24.07;46.85
72762;SHT30;60886;55.034;73.150;2023-08-07T14:12:41;24.03;46.40
72762;SHT30;60886;55.034;73.150;2023-08-07T14:15:43;23.99;45.97
72762;SHT30;60886;55.034;73.150;2023-08-07T14:18:46;23.93;46.57
72762;SHT30;60886;55.034;73.150;2023-08-07T14:21:48;23.84;46.56
72762;SHT30;60886;55.034;73.150;2023-08-07T14:24:50;23.79;47.04
72762;SHT30;60886;55.034;73.150;2023-08-07T14:27:51;23.67;47.23
72762;SHT30;60886;55.034;73.150;2023-08-07T14:30:53;23.63;47.81
72762;SHT30;60886;55.034;73.150;2023-08-07T14:33:54;23.53;47.83
72762;SHT30;60886;55.034;73.150;2023-08-07T14:36:55;23.49;48.31
72762;SHT30;60886;55.034;73.150;2023-08-07T14:39:57;23.42;48.27
72762;SHT30;60886;55.034;73.150;2023-08-07T14:42:58;23.36;48.36
72762;SHT30;60886;55.034;73.150;2023-08-07T14:46:00;23.30;48.41
72762;SHT30;60886;55.034;73.150;2023-08-07T14:49:02;23.28;48.57
72762;SHT30;60886;55.034;73.150;2023-08-07T14:52:05;23.20;48.66
72762;SHT30;60886;55.034;73.150;2023-08-07T14:55:07;23.19;48.73
72762;SHT30;60886;55.034;73.150;2023-08-07T14:58:08;23.12;48.77
72762;SHT30;60886;55.034;73.150;2023-08-07T15:01:10;23.06;49.16
72762;SHT30;60886;55.034;73.150;2023-08-07T15:04:11;22.99;49.56
72762;SHT30;60886;55.034;73.150;2023-08-07T15:07:13;22.88;50.16
72762;SHT30;60886;55.034;73.150;2023-08-07T15:10:14;22.81;50.68
72762;SHT30;60886;55.034;73.150;2023-08-07T15:13:16;22.65;52.08
72762;SHT30;60886;55.034;73.150;2023-08-07T15:16:18;22.54;54.12
72762;SHT30;60886;55.034;73.150;2023-08-07T15:19:19;22.39;55.59
72762;SHT30;60886;55.034;73.150;2023-08-07T15:22:21;22.20;55.37
72762;SHT30;60886;55.034;73.150;2023-08-07T15:25:22;22.00;57.45
72762;SHT30;60886;55.034;73.150;2023-08-07T15:28:24;21.83;55.71
72762;SHT30;60886;55.034;73.150;2023-08-07T15:31:25;21.76;57.66
72762;SHT30;60886;55.034;73.150;2023-08-07T15:34:27;21.59;55.96
72762;SHT30;60886;55.034;73.150;2023-08-07T15:37:28;21.50;58.05
72762;SHT30;60886;55.034;73.150;2023-08-07T15:40:37;21.38;61.36
72762;SHT30;60886;55.034;73.150;2023-08-07T15:43:39;21.18;59.67
72762;SHT30;60886;55.034;73.150;2023-08-07T15:46:41;21.04;60.61
72762;SHT30;60886;55.034;73.150;2023-08-07T15:49:42;20.91;60.78
72762;SHT30;60886;55.034;73.150;2023-08-07T15:52:45;20.80;60.55
72762;SHT30;60886;55.034;73.150;2023-08-07T15:55:47;20.67;64.03
72762;SHT30;60886;55.034;73.150;2023-08-07T15:58:48;20.54;62.63
72762;SHT30;60886;55.034;73.150;2023-08-07T16:01:52;20.47;61.19
72762;SHT30;60886;55.034;73.150;2023-08-07T16:04:53;20.41;63.77
72762;SHT30;60886;55.034;73.150;2023-08-07T16:07:55;20.34;64.00
72762;SHT30;60886;55.034;73.150;2023-08-07T16:10:56;20.20;65.12
72762;SHT30;60886;55.034;73.150;2023-08-07T16:13:58;20.12;65.57
72762;SHT30;60886;55.034;73.150;2023-08-07T16:16:59;20.03;64.72
72762;SHT30;60886;55.034;73.150;2023-08-07T16:20:01;19.92;66.16
72762;SHT30;60886;55.034;73.150;2023-08-07T16:23:04;19.82;66.67
72762;SHT30;60886;55.034;73.150;2023-08-07T16:26:06;19.79;67.14
72762;SHT30;60886;55.034;73.150;2023-08-07T16:29:08;19.71;67.05
72762;SHT30;60886;55.034;73.150;2023-08-07T16:32:09;19.65;67.85
72762;SHT30;60886;55.034;73.150;2023-08-07T16:35:11;19.55;67.87
72762;SHT30;60886;55.034;73.150;2023-08-07T16:38:13;19.45;67.96
72762;SHT30;60886;55.034;73.150;2023-08-07T16:41:15;19.41;68.09
72762;SHT30;60886;55.034;73.150;2023-08-07T16:44:17;19.35;68.23
72762;SHT30;60886;55.034;73.150;2023-08-07T16:47:19;19.27;68.08
72762;SHT30;60886;55.034;73.150;2023-08-07T16:50:20;19.21;68.73
72762;SHT30;60886;55.034;73.150;2023-08-07T16:53:35;19.18;68.69
72762;SHT30;60886;55.034;73.150;2023-08-07T16:56:37;19.15;68.98
72762;SHT30;60886;55.034;73.150;2023-08-07T16:59:38;19.10;69.61
72762;SHT30;60886;55.034;73.150;2023-08-07T17:02:39;19.04;68.89
72762;SHT30;60886;55.034;73.150;2023-08-07T17:05:41;19.01;68.17
72762;SHT30;60886;55.034;73.150;2023-08-07T17:08:42;19.01;68.78
72762;SHT30;60886;55.034;73.150;2023-08-07T17:11:47;18.94;69.04
72762;SHT30;60886;55.034;73.150;2023-08-07T17:14:48;18.91;68.25
72762;SHT30;60886;55.034;73.150;2023-08-07T17:17:50;18.83;68.19
72762;SHT30;60886;55.034;73.150;2023-08-07T17:20:51;18.83;67.62
72762;SHT30;60886;55.034;73.150;2023-08-07T17:23:52;18.84;67.22
72762;SHT30;60886;55.034;73.150;2023-08-07T17:26:54;18.81;67.13
72762;SHT30;60886;55.034;73.150;2023-08-07T17:29:55;18.78;66.72
72762;SHT30;60886;55.034;73.150;2023-08-07T17:32:57;18.81;66.21
72762;SHT30;60886;55.034;73.150;2023-08-07T17:35:58;18.81;66.68
72762;SHT30;60886;55.034;73.150;2023-08-07T17:38:59;18.81;64.84
72762;SHT30;60886;55.034;73.150;2023-08-07T17:42:01;18.87;65.85
72762;SHT30;60886;55.034;73.150;2023-08-07T17:45:03;18.80;67.29
72762;SHT30;60886;55.034;73.150;2023-08-07T17:48:06;18.71;65.96
72762;SHT30;60886;55.034;73.150;2023-08-07T17:51:07;18.60;67.63
72762;SHT30;60886;55.034;73.150;2023-08-07T17:54:09;18.54;67.68
72762;SHT30;60886;55.034;73.150;2023-08-07T17:57:10;18.52;66.56
72762;SHT30;60886;55.034;73.150;2023-08-07T18:00:12;18.39;69.44
72762;SHT30;60886;55.034;73.150;2023-08-07T18:03:15;18.28;69.61
72762;SHT30;60886;55.034;73.150;2023-08-07T18:06:16;18.17;69.12
72762;SHT30;60886;55.034;73.150;2023-08-07T18:09:18;18.13;68.62
72762;SHT30;60886;55.034;73.150;2023-08-07T18:12:20;18.02;69.30
72762;SHT30;60886;55.034;73.150;2023-08-07T18:15:21;17.93;70.44
72762;SHT30;60886;55.034;73.150;2023-08-07T18:18:23;17.82;71.27
72762;SHT30;60886;55.034;73.150;2023-08-07T18:21:25;17.74;71.59
72762;SHT30;60886;55.034;73.150;2023-08-07T18:24:27;17.64;71.84
72762;SHT30;60886;55.034;73.150;2023-08-07T18:27:28;17.52;71.68
72762;SHT30;60886;55.034;73.150;2023-08-07T18:30:34;17.42;72.04
72762;SHT30;60886;55.034;73.150;2023-08-07T18:33:36;17.38;72.76
72762;SHT30;60886;55.034;73.150;2023-08-07T18:36:38;17.31;70.54
72762;SHT30;60886;55.034;73.150;2023-08-07T18:39:40;17.28;72.33
72762;SHT30;60886;55.034;73.150;2023-08-07T18:42:42;17.21;73.45
72762;SHT30;60886;55.034;73.150;2023-08-07T18:45:44;17.16;72.46
72762;SHT30;60886;55.034;73.150;2023-08-07T18:48:47;17.14;72.10
72762;SHT30;60886;55.034;73.150;2023-08-07T18:51:48;17.13;71.98
72762;SHT30;60886;55.034;73.150;2023-08-07T18:54:51;17.13;71.44
72762;SHT30;60886;55.034;73.150;2023-08-07T18:57:53;17.18;70.93